createdAt,value
2019-03-09T00:00:54.747Z,7.92
2019-03-09T00:01:54.605Z,8.02
2019-03-09T00:02:54.594Z,7.96
2019-03-09T00:03:54.867Z,8.03
2019-03-09T00:04:54.573Z,8.04
2019-03-09T00:05:54.566Z,7.97
2019-03-09T00:06:54.695Z,8.03
2019-03-09T00:07:54.542Z,8.12
2019-03-09T00:08:54.529Z,8.04
2019-03-09T00:09:54.536Z,7.97
2019-03-09T00:10:54.508Z,8.11
2019-03-09T00:11:54.497Z,8.02
2019-03-09T00:12:54.624Z,8.02
2019-03-09T00:13:54.477Z,8.02
2019-03-09T00:14:54.466Z,8.02
2019-03-09T00:15:54.458Z,8.00
2019-03-09T00:16:54.753Z,8.04
2019-03-09T00:17:54.439Z,8.14
2019-03-09T00:18:54.552Z,8.11
2019-03-09T00:19:54.414Z,8.17
2019-03-09T00:20:54.402Z,8.07
2019-03-09T00:21:54.392Z,8.00
2019-03-09T00:22:54.381Z,8.08
2019-03-09T00:23:54.385Z,8.12
2019-03-09T00:24:54.493Z,8.10
2019-03-09T00:25:54.351Z,8.08
2019-03-09T00:26:54.344Z,7.97
2019-03-09T00:27:54.329Z,7.92
2019-03-09T00:28:54.609Z,7.99
2019-03-09T00:29:54.309Z,8.04
2019-03-09T00:30:54.694Z,7.94
2019-03-09T00:31:54.295Z,7.97
2019-03-09T00:32:54.281Z,7.94
2019-03-09T00:33:54.269Z,7.90
2019-03-09T00:34:54.255Z,7.96
2019-03-09T00:35:54.246Z,7.94
2019-03-09T00:36:54.617Z,7.93
2019-03-09T00:37:54.233Z,7.99
2019-03-09T00:38:54.214Z,7.96
2019-03-09T00:39:54.209Z,7.93
2019-03-09T00:40:54.196Z,7.92
2019-03-09T00:41:54.183Z,7.96
2019-03-09T00:42:54.311Z,7.94
2019-03-09T00:43:54.166Z,7.87
2019-03-09T00:44:54.157Z,7.84
2019-03-09T00:45:54.144Z,7.87
2019-03-09T00:46:54.426Z,7.81
2019-03-09T00:47:54.122Z,7.89
2019-03-09T00:48:54.264Z,7.89
2019-03-09T00:49:54.157Z,7.87
2019-03-09T00:50:54.180Z,7.92
2019-03-09T00:51:54.083Z,7.84
2019-03-09T00:52:54.071Z,7.82
2019-03-09T00:53:54.366Z,7.78
2019-03-09T00:54:54.976Z,7.82
2019-03-09T00:55:54.687Z,7.79
2019-03-09T00:56:54.026Z,7.85
2019-03-09T00:57:54.022Z,7.82
2019-03-09T00:58:54.006Z,7.84
2019-03-09T00:59:53.995Z,7.81
2019-03-09T01:00:54.411Z,7.84
2019-03-09T01:01:53.975Z,7.82
2019-03-09T01:02:53.965Z,7.79
2019-03-09T01:03:53.956Z,7.71
2019-03-09T01:04:53.943Z,7.79
2019-03-09T01:05:53.954Z,7.78
2019-03-09T01:06:54.163Z,7.74
2019-03-09T01:07:54.424Z,7.67
2019-03-09T01:08:53.963Z,7.71
2019-03-09T01:09:53.951Z,7.72
2019-03-09T01:10:53.881Z,7.71
2019-03-09T01:11:53.873Z,7.77
2019-03-09T01:12:53.983Z,7.77
2019-03-09T01:13:53.848Z,7.78
2019-03-09T01:14:54.126Z,7.77
2019-03-09T01:15:53.828Z,7.72
2019-03-09T01:16:53.817Z,7.67
2019-03-09T01:17:53.812Z,7.77
2019-03-09T01:18:53.918Z,7.69
2019-03-09T01:19:53.787Z,7.53
2019-03-09T01:20:53.783Z,7.63
2019-03-09T01:21:54.072Z,7.63
2019-03-09T01:22:53.756Z,7.55
2019-03-09T01:23:53.750Z,7.58
2019-03-09T01:24:53.880Z,7.56
2019-03-09T01:25:53.726Z,7.60
2019-03-09T01:26:53.715Z,7.67
2019-03-09T01:27:53.702Z,7.72
2019-03-09T01:28:53.978Z,7.59
2019-03-09T01:29:53.682Z,7.63
2019-03-09T01:30:53.729Z,7.59
2019-03-09T01:31:53.677Z,7.59
2019-03-09T01:32:53.649Z,7.63
2019-03-09T01:33:53.640Z,7.59
2019-03-09T01:34:53.629Z,7.55
2019-03-09T01:35:53.912Z,7.66
2019-03-09T01:36:53.667Z,7.62
2019-03-09T01:37:53.600Z,7.63
2019-03-09T01:38:53.589Z,7.67
2019-03-09T01:39:53.579Z,7.60
2019-03-09T01:40:53.572Z,7.71
2019-03-09T01:41:53.560Z,7.71
2019-03-09T01:42:54.065Z,7.63
2019-03-09T01:43:53.540Z,7.62
2019-03-09T01:44:53.525Z,7.58
2019-03-09T01:45:53.518Z,7.58
2019-03-09T01:46:53.513Z,7.62
2019-03-09T01:47:53.498Z,7.59
2019-03-09T01:48:53.542Z,7.62
2019-03-09T01:49:53.769Z,7.56
2019-03-09T01:50:53.466Z,7.56
2019-03-09T01:51:53.452Z,7.53
2019-03-09T01:52:53.443Z,7.56
2019-03-09T01:53:53.439Z,7.47
2019-03-09T01:54:53.477Z,7.53
2019-03-09T01:55:53.409Z,7.55
2019-03-09T01:56:53.695Z,7.47
2019-03-09T01:57:53.396Z,7.66
2019-03-09T01:58:53.398Z,7.63
2019-03-09T01:59:53.370Z,7.71
2019-03-09T02:00:53.516Z,7.71
2019-03-09T02:01:53.352Z,7.71
2019-03-09T02:02:53.340Z,7.69
2019-03-09T02:03:53.744Z,7.67
2019-03-09T02:04:53.355Z,7.74
2019-03-09T02:05:53.467Z,7.72
2019-03-09T02:06:53.450Z,7.71
2019-03-09T02:07:53.286Z,7.77
2019-03-09T02:08:53.284Z,7.77
2019-03-09T02:09:53.265Z,7.78
2019-03-09T02:10:53.253Z,7.84
2019-03-09T02:11:53.243Z,7.72
2019-03-09T02:12:53.280Z,7.84
2019-03-09T02:13:53.225Z,7.81
2019-03-09T02:14:53.218Z,7.78
2019-03-09T02:15:53.211Z,7.71
2019-03-09T02:16:53.477Z,7.74
2019-03-09T02:17:53.196Z,7.75
2019-03-09T02:18:53.254Z,7.69
2019-03-09T02:19:53.161Z,7.69
2019-03-09T02:20:53.149Z,7.67
2019-03-09T02:21:53.147Z,7.69
2019-03-09T02:22:53.131Z,7.67
2019-03-09T02:23:53.401Z,7.69
2019-03-09T02:24:53.159Z,7.74
2019-03-09T02:25:53.099Z,7.69
2019-03-09T02:26:53.091Z,7.75
2019-03-09T02:27:53.078Z,7.69
2019-03-09T02:28:53.067Z,7.67
2019-03-09T02:29:53.059Z,7.63
2019-03-09T02:30:53.094Z,7.58
2019-03-09T02:31:53.034Z,7.58
2019-03-09T02:32:53.024Z,7.53
2019-03-09T02:33:53.013Z,7.52
2019-03-09T02:34:53.002Z,7.56
2019-03-09T02:35:53.289Z,7.55
2019-03-09T02:36:53.071Z,7.44
2019-03-09T02:37:52.995Z,7.45
2019-03-09T02:38:52.961Z,7.37
2019-03-09T02:39:52.952Z,7.31
2019-03-09T02:40:52.941Z,7.31
2019-03-09T02:41:52.931Z,7.38
2019-03-09T02:42:52.966Z,7.24
2019-03-09T02:43:52.909Z,7.27
2019-03-09T02:44:52.898Z,7.29
2019-03-09T02:45:52.891Z,7.20
2019-03-09T02:46:52.876Z,7.29
2019-03-09T02:47:53.152Z,7.26
2019-03-09T02:48:52.908Z,7.27
2019-03-09T02:49:52.844Z,7.29
2019-03-09T02:50:52.835Z,7.26
2019-03-09T02:51:52.829Z,7.27
2019-03-09T02:52:52.825Z,7.27
2019-03-09T02:53:52.808Z,7.22
2019-03-09T02:54:53.175Z,7.17
2019-03-09T02:55:52.782Z,7.24
2019-03-09T02:56:52.770Z,7.23
2019-03-09T02:57:52.764Z,7.16
2019-03-09T02:58:52.750Z,7.15
2019-03-09T02:59:52.740Z,7.24
2019-03-09T03:02:25.741Z,7.22
2019-03-09T03:03:25.387Z,7.16
2019-03-09T03:04:25.380Z,7.09
2019-03-09T03:05:25.368Z,7.16
2019-03-09T03:06:25.363Z,7.19
2019-03-09T03:07:25.356Z,7.17
2019-03-09T03:08:25.379Z,7.15
2019-03-09T03:09:25.617Z,7.15
2019-03-09T03:10:25.318Z,7.16
2019-03-09T03:11:25.304Z,7.22
2019-03-09T03:12:25.292Z,7.09
2019-03-09T03:13:25.285Z,7.08
2019-03-09T03:14:25.373Z,7.13
2019-03-09T03:15:25.282Z,7.12
2019-03-09T03:16:25.534Z,7.13
2019-03-09T03:17:25.240Z,7.05
2019-03-09T03:18:25.239Z,7.17
2019-03-09T03:19:25.222Z,7.12
2019-03-09T03:20:25.261Z,7.07
2019-03-09T03:21:25.196Z,6.90
2019-03-09T03:22:25.187Z,6.98
2019-03-09T03:23:25.529Z,6.97
2019-03-09T03:24:25.167Z,6.97
2019-03-09T03:25:25.172Z,7.01
2019-03-09T03:26:25.192Z,7.02
2019-03-09T03:27:25.133Z,6.97
2019-03-09T03:28:25.139Z,7.05
2019-03-09T03:29:25.115Z,6.99
2019-03-09T03:30:25.416Z,6.97
2019-03-09T03:31:25.090Z,7.01
2019-03-09T03:32:25.506Z,7.02
2019-03-09T03:33:25.079Z,7.01
2019-03-09T03:34:25.062Z,6.94
2019-03-09T03:35:25.046Z,6.98
2019-03-09T03:36:25.043Z,7.01
2019-03-09T03:37:25.329Z,6.91
2019-03-09T03:38:25.093Z,6.95
2019-03-09T03:39:25.008Z,7.01
2019-03-09T03:40:24.999Z,6.98
2019-03-09T03:41:24.983Z,7.04
2019-03-09T03:42:24.973Z,7.02
2019-03-09T03:43:25.642Z,6.98
2019-03-09T03:44:25.284Z,7.08
2019-03-09T03:45:25.647Z,6.98
2019-03-09T03:46:24.934Z,7.01
2019-03-09T03:47:25.653Z,6.98
2019-03-09T03:48:24.945Z,6.90
2019-03-09T03:49:24.900Z,6.87
2019-03-09T03:50:24.969Z,7.01
2019-03-09T03:51:25.172Z,6.97
2019-03-09T03:52:24.881Z,6.91
2019-03-09T03:53:24.868Z,6.86
2019-03-09T03:54:24.877Z,6.84
2019-03-09T03:55:24.838Z,6.87
2019-03-09T03:56:24.914Z,6.86
2019-03-09T03:57:24.827Z,6.94
2019-03-09T03:58:25.097Z,6.97
2019-03-09T03:59:24.793Z,6.95
2019-03-09T04:00:24.801Z,6.94
2019-03-09T04:01:24.774Z,6.91
2019-03-09T04:02:24.807Z,6.91
2019-03-09T04:03:24.749Z,6.83
2019-03-09T04:04:24.743Z,6.97
2019-03-09T04:05:25.009Z,6.87
2019-03-09T04:06:24.716Z,6.79
2019-03-09T04:07:24.756Z,6.77
2019-03-09T04:08:25.091Z,6.80
2019-03-09T04:09:24.696Z,6.79
2019-03-09T04:10:24.674Z,6.86
2019-03-09T04:11:24.663Z,6.83
2019-03-09T04:12:24.939Z,6.83
2019-03-09T04:13:24.641Z,6.84
2019-03-09T04:14:24.684Z,6.84
2019-03-09T04:15:24.621Z,6.71
2019-03-09T04:16:24.611Z,6.87
2019-03-09T04:17:24.602Z,6.86
2019-03-09T04:18:24.592Z,6.79
2019-03-09T04:19:24.863Z,6.86
2019-03-09T04:20:24.614Z,6.83
2019-03-09T04:21:24.556Z,6.89
2019-03-09T04:22:24.546Z,6.87
2019-03-09T04:23:24.535Z,6.86
2019-03-09T04:24:24.524Z,6.90
2019-03-09T04:25:24.516Z,6.86
2019-03-09T04:26:24.863Z,6.86
2019-03-09T04:27:24.503Z,6.81
2019-03-09T04:28:24.490Z,6.72
2019-03-09T04:29:24.472Z,6.86
2019-03-09T04:30:24.462Z,6.77
2019-03-09T04:31:24.450Z,6.81
2019-03-09T04:32:24.778Z,6.87
2019-03-09T04:33:24.429Z,6.89
2019-03-09T04:34:24.423Z,6.86
2019-03-09T04:35:24.419Z,6.90
2019-03-09T04:36:24.397Z,6.86
2019-03-09T04:37:24.391Z,6.81
2019-03-09T04:38:24.711Z,6.94
2019-03-09T04:39:24.368Z,6.98
2019-03-09T04:40:24.357Z,6.94
2019-03-09T04:41:24.347Z,6.98
2019-03-09T04:42:24.334Z,7.04
2019-03-09T04:43:24.330Z,6.98
2019-03-09T04:44:24.671Z,6.97
2019-03-09T04:45:24.311Z,7.04
2019-03-09T04:46:24.293Z,6.98
2019-03-09T04:47:24.284Z,6.97
2019-03-09T04:48:24.270Z,7.01
2019-03-09T04:49:24.259Z,6.91
2019-03-09T04:50:24.297Z,7.04
2019-03-09T04:51:24.237Z,7.08
2019-03-09T04:52:24.232Z,7.02
2019-03-09T04:53:24.217Z,7.04
2019-03-09T04:54:24.208Z,6.95
2019-03-09T04:55:24.199Z,7.01
2019-03-09T04:56:24.540Z,7.04
2019-03-09T04:57:24.176Z,7.02
2019-03-09T04:58:24.164Z,7.09
2019-03-09T04:59:24.163Z,7.16
2019-03-09T05:00:24.143Z,7.05
2019-03-09T05:01:24.134Z,7.07
2019-03-09T05:02:24.488Z,7.09
2019-03-09T05:03:24.111Z,7.07
2019-03-09T05:04:24.102Z,7.07
2019-03-09T05:05:24.090Z,7.05
2019-03-09T05:06:24.084Z,7.13
2019-03-09T05:07:24.071Z,7.16
2019-03-09T05:08:24.113Z,7.15
2019-03-09T05:09:24.337Z,7.05
2019-03-09T05:10:24.049Z,7.16
2019-03-09T05:11:24.029Z,7.08
2019-03-09T05:12:24.016Z,7.15
2019-03-09T05:13:24.020Z,7.15
2019-03-09T05:14:24.047Z,7.24
2019-03-09T05:15:23.985Z,7.24
2019-03-09T05:16:24.285Z,7.29
2019-03-09T05:17:23.969Z,7.29
2019-03-09T05:18:23.952Z,7.23
2019-03-09T05:19:23.946Z,7.19
2019-03-09T05:20:24.354Z,7.31
2019-03-09T05:21:23.926Z,7.32
2019-03-09T05:22:23.910Z,7.37
2019-03-09T05:23:24.205Z,7.34
2019-03-09T05:24:23.899Z,7.44
2019-03-09T05:25:23.879Z,7.45
2019-03-09T05:26:23.916Z,7.44
2019-03-09T05:27:23.863Z,7.52
2019-03-09T05:28:23.846Z,7.55
2019-03-09T05:29:23.842Z,7.53
2019-03-09T05:30:24.121Z,7.58
2019-03-09T05:31:23.824Z,7.53
2019-03-09T05:32:23.852Z,7.50
2019-03-09T05:33:23.795Z,7.53
2019-03-09T05:34:23.783Z,7.62
2019-03-09T05:35:23.773Z,7.55
2019-03-09T05:36:23.762Z,7.62
2019-03-09T05:37:24.035Z,7.55
2019-03-09T05:38:24.052Z,7.66
2019-03-09T05:39:23.729Z,7.53
2019-03-09T05:40:23.721Z,7.74
2019-03-09T05:41:23.711Z,7.62
2019-03-09T05:42:23.697Z,7.69
2019-03-09T05:43:23.686Z,7.63
2019-03-09T05:44:24.168Z,7.82
2019-03-09T05:45:23.668Z,7.78
2019-03-09T05:46:23.655Z,7.79
2019-03-09T05:47:23.646Z,7.74
2019-03-09T05:48:23.646Z,7.71
2019-03-09T05:49:23.624Z,7.74
2019-03-09T05:50:23.672Z,7.63
2019-03-09T05:51:24.080Z,7.71
2019-03-09T05:52:23.627Z,7.77
2019-03-09T05:53:23.580Z,7.77
2019-03-09T05:54:23.572Z,7.84
2019-03-09T05:55:23.560Z,7.77
2019-03-09T05:56:23.779Z,7.69
2019-03-09T05:57:23.538Z,7.78
2019-03-09T05:58:24.029Z,7.78
2019-03-09T05:59:23.516Z,7.78
2019-03-09T06:00:23.507Z,7.77
2019-03-09T06:01:23.497Z,7.75
2019-03-09T06:02:23.584Z,7.69
2019-03-09T06:03:23.475Z,7.85
2019-03-09T06:04:23.464Z,7.79
2019-03-09T06:05:23.833Z,7.81
2019-03-09T06:06:23.455Z,7.77
2019-03-09T06:07:23.438Z,7.82
2019-03-09T06:08:23.471Z,7.81
2019-03-09T06:09:23.409Z,7.85
2019-03-09T06:10:23.406Z,7.79
2019-03-09T06:11:23.389Z,7.81
2019-03-09T06:12:23.824Z,7.85
2019-03-09T06:13:23.372Z,7.81
2019-03-09T06:14:23.447Z,7.87
2019-03-09T06:15:23.354Z,7.78
2019-03-09T06:16:23.337Z,7.85
2019-03-09T06:17:23.326Z,7.84
2019-03-09T06:18:23.317Z,7.85
2019-03-09T06:19:23.778Z,7.81
2019-03-09T06:20:23.342Z,7.89
2019-03-09T06:21:23.284Z,7.90
2019-03-09T06:22:23.271Z,7.85
2019-03-09T06:23:23.261Z,7.90
2019-03-09T06:24:23.266Z,7.85
2019-03-09T06:25:23.356Z,7.89
2019-03-09T06:26:23.720Z,7.84
2019-03-09T06:27:23.227Z,7.94
2019-03-09T06:28:23.222Z,7.90
2019-03-09T06:29:23.245Z,7.92
2019-03-09T06:30:23.188Z,7.93
2019-03-09T06:31:23.177Z,8.02
2019-03-09T06:32:23.563Z,8.04
2019-03-09T06:33:23.158Z,8.04
2019-03-09T06:34:23.143Z,8.02
2019-03-09T06:35:23.134Z,8.04
2019-03-09T06:36:23.121Z,8.03
2019-03-09T06:37:23.111Z,8.18
2019-03-09T06:38:23.489Z,8.18
2019-03-09T06:39:23.088Z,8.20
2019-03-09T06:40:23.115Z,8.15
2019-03-09T06:41:23.076Z,8.15
2019-03-09T06:42:23.067Z,8.03
2019-03-09T06:43:23.071Z,8.08
2019-03-09T06:44:23.090Z,8.08
2019-03-09T06:45:23.024Z,8.14
2019-03-09T06:46:23.014Z,8.18
2019-03-09T06:47:23.025Z,8.15
2019-03-09T06:48:22.993Z,8.14
2019-03-09T06:49:22.984Z,8.15
2019-03-09T06:50:24.263Z,8.14
2019-03-09T06:51:22.964Z,8.20
2019-03-09T06:52:22.951Z,8.18
2019-03-09T06:53:22.941Z,8.20
2019-03-09T06:54:22.931Z,8.20
2019-03-09T06:55:22.919Z,8.20
2019-03-09T06:56:22.955Z,8.18
2019-03-09T06:57:23.186Z,8.22
2019-03-09T06:58:22.886Z,8.25
2019-03-09T06:59:22.883Z,8.32
2019-03-09T07:00:22.873Z,8.30
2019-03-09T07:01:22.856Z,8.26
2019-03-09T07:02:22.879Z,8.29
2019-03-09T07:03:22.840Z,8.32
2019-03-09T07:04:23.283Z,8.30
2019-03-09T07:05:22.811Z,8.25
2019-03-09T07:06:22.800Z,8.32
2019-03-09T07:07:22.790Z,8.25
2019-03-09T07:08:22.841Z,8.30
2019-03-09T07:09:22.771Z,8.32
2019-03-09T07:10:22.760Z,8.36
2019-03-09T07:11:24.250Z,8.35
2019-03-09T07:12:22.738Z,8.30
2019-03-09T07:13:22.727Z,8.33
2019-03-09T07:14:22.757Z,8.42
2019-03-09T07:15:22.707Z,8.37
2019-03-09T07:16:22.695Z,8.36
2019-03-09T07:17:22.706Z,8.44
2019-03-09T07:18:23.026Z,8.32
2019-03-09T07:19:22.668Z,8.45
2019-03-09T07:20:22.704Z,8.45
2019-03-09T07:21:22.644Z,8.39
2019-03-09T07:22:22.641Z,8.42
2019-03-09T07:23:22.622Z,8.37
2019-03-09T07:24:22.615Z,8.42
2019-03-09T07:25:22.944Z,8.44
2019-03-09T07:26:22.655Z,8.37
2019-03-09T07:27:22.590Z,8.42
2019-03-09T07:28:22.585Z,8.44
2019-03-09T07:29:22.563Z,8.42
2019-03-09T07:30:22.560Z,8.44
2019-03-09T07:31:22.554Z,8.45
2019-03-09T07:32:22.567Z,8.45
2019-03-09T07:33:22.535Z,8.48
2019-03-09T07:34:22.511Z,8.60
2019-03-09T07:35:22.496Z,8.54
2019-03-09T07:36:22.487Z,8.63
2019-03-09T07:37:22.480Z,8.58
2019-03-09T07:38:22.808Z,8.66
2019-03-09T07:39:22.455Z,8.76
2019-03-09T07:40:22.449Z,8.78
2019-03-09T07:41:22.435Z,8.76
2019-03-09T07:42:22.435Z,8.78
2019-03-09T07:43:22.433Z,8.81
2019-03-09T07:44:22.463Z,8.76
2019-03-09T07:45:22.393Z,8.79
2019-03-09T07:46:22.451Z,8.76
2019-03-09T07:47:22.370Z,8.76
2019-03-09T07:48:22.363Z,8.78
2019-03-09T07:49:22.354Z,8.78
2019-03-09T07:50:22.374Z,8.83
2019-03-09T07:51:22.795Z,8.81
2019-03-09T07:52:22.328Z,8.79
2019-03-09T07:53:22.306Z,8.81
2019-03-09T07:54:22.298Z,8.97
2019-03-09T07:55:23.129Z,8.90
2019-03-09T07:56:22.310Z,8.83
2019-03-09T07:57:22.285Z,8.88
2019-03-09T07:58:22.590Z,8.81
2019-03-09T07:59:22.243Z,8.76
2019-03-09T08:00:22.233Z,8.81
2019-03-09T08:01:23.959Z,8.75
2019-03-09T08:02:22.257Z,8.78
2019-03-09T08:03:22.207Z,8.79
2019-03-09T08:04:22.193Z,8.76
2019-03-09T08:05:22.488Z,8.83
2019-03-09T08:06:22.170Z,8.81
2019-03-09T08:07:22.167Z,8.90
2019-03-09T08:08:22.188Z,8.90
2019-03-09T08:09:29.097Z,8.88
2019-03-09T08:10:23.107Z,8.88
2019-03-09T08:11:23.128Z,8.90
2019-03-09T08:12:24.058Z,8.83
2019-03-09T08:13:22.097Z,8.90
2019-03-09T08:14:22.123Z,8.73
2019-03-09T08:15:22.079Z,8.88
2019-03-09T08:16:22.065Z,8.81
2019-03-09T08:17:24.618Z,8.78
2019-03-09T08:18:22.065Z,8.83
2019-03-09T08:19:22.038Z,8.90
2019-03-09T08:20:22.207Z,8.96
2019-03-09T08:21:22.031Z,8.90
2019-03-09T08:22:22.078Z,8.94
2019-03-09T08:23:22.043Z,9.02
2019-03-09T08:24:21.988Z,9.20
2019-03-09T08:25:22.627Z,9.21
2019-03-09T08:26:22.018Z,9.21
2019-03-09T08:27:22.603Z,9.24
2019-03-09T08:28:22.015Z,9.27
2019-03-09T08:29:21.929Z,9.30
2019-03-09T08:30:22.254Z,9.32
2019-03-09T08:31:21.908Z,9.32
2019-03-09T08:32:21.951Z,9.39
2019-03-09T08:33:21.905Z,9.46
2019-03-09T08:34:21.882Z,9.53
2019-03-09T08:35:21.872Z,9.39
2019-03-09T08:36:21.867Z,9.48
2019-03-09T08:37:21.884Z,9.46
2019-03-09T08:38:22.150Z,9.58
2019-03-09T08:39:21.842Z,9.57
2019-03-09T08:40:22.111Z,9.58
2019-03-09T08:41:21.817Z,9.81
2019-03-09T08:42:22.186Z,9.88
2019-03-09T08:43:21.785Z,9.86
2019-03-09T08:44:21.812Z,10.04
2019-03-09T08:45:21.776Z,10.00
2019-03-09T08:46:21.761Z,10.04
2019-03-09T08:47:22.206Z,9.99
2019-03-09T08:48:22.241Z,10.01
2019-03-09T08:49:22.222Z,10.17
2019-03-09T08:50:21.740Z,10.10
2019-03-09T08:51:21.735Z,10.18
2019-03-09T08:52:21.680Z,10.03
2019-03-09T08:53:21.698Z,10.06
2019-03-09T08:54:21.666Z,10.04
2019-03-09T08:55:21.671Z,10.09
2019-03-09T08:56:21.690Z,10.22
2019-03-09T08:57:21.658Z,10.24
2019-03-09T08:58:21.663Z,10.32
2019-03-09T08:59:21.655Z,10.39
2019-03-09T09:00:21.613Z,10.37
2019-03-09T09:01:21.600Z,10.22
2019-03-09T09:02:21.988Z,10.15
2019-03-09T09:03:21.560Z,10.01
2019-03-09T09:04:21.720Z,10.00
2019-03-09T09:05:21.734Z,10.00
2019-03-09T09:06:22.551Z,9.86
2019-03-09T09:07:21.743Z,9.88
2019-03-09T09:08:22.123Z,9.83
2019-03-09T09:09:21.750Z,9.91
2019-03-09T09:10:21.885Z,9.89
2019-03-09T09:11:21.603Z,9.78
2019-03-09T09:12:21.509Z,9.67
2019-03-09T09:13:21.457Z,9.75
2019-03-09T09:14:22.206Z,9.71
2019-03-09T09:15:21.482Z,9.68
2019-03-09T09:16:21.428Z,9.67
2019-03-09T09:17:21.606Z,9.58
2019-03-09T09:18:21.479Z,9.63
2019-03-09T09:19:21.422Z,9.61
2019-03-09T09:20:21.758Z,9.60
2019-03-09T09:21:21.365Z,9.57
2019-03-09T09:22:21.369Z,9.63
2019-03-09T09:23:21.396Z,9.58
2019-03-09T09:24:21.361Z,9.56
2019-03-09T09:25:24.105Z,9.52
2019-03-09T09:26:22.324Z,9.48
2019-03-09T09:27:21.687Z,9.56
2019-03-09T09:28:21.326Z,9.46
2019-03-09T09:29:21.362Z,9.52
2019-03-09T09:30:21.781Z,9.61
2019-03-09T09:31:21.330Z,9.64
2019-03-09T09:32:21.493Z,9.61
2019-03-09T09:33:21.358Z,9.75
2019-03-09T09:34:21.525Z,9.82
2019-03-09T09:35:21.284Z,9.83
2019-03-09T09:36:21.482Z,9.85
2019-03-09T09:37:21.272Z,9.81
2019-03-09T09:38:21.792Z,9.78
2019-03-09T09:39:22.310Z,9.93
2019-03-09T09:40:21.161Z,9.86
2019-03-09T09:41:21.240Z,9.88
2019-03-09T09:42:21.272Z,9.97
2019-03-09T09:43:21.201Z,9.99
2019-03-09T09:44:22.208Z,10.00
2019-03-09T09:45:22.117Z,9.97
2019-03-09T09:46:21.156Z,9.99
2019-03-09T09:47:21.182Z,10.00
2019-03-09T09:48:21.075Z,9.94
2019-03-09T09:49:21.132Z,10.01
2019-03-09T09:50:21.471Z,10.03
2019-03-09T09:51:21.418Z,9.99
2019-03-09T09:52:21.028Z,10.03
2019-03-09T09:53:23.343Z,9.99
2019-03-09T09:54:21.014Z,9.99
2019-03-09T09:55:21.002Z,9.91
2019-03-09T09:56:21.025Z,10.00
2019-03-09T09:57:21.649Z,10.04
2019-03-09T09:58:21.169Z,9.88
2019-03-09T09:59:20.987Z,9.93
2019-03-09T10:00:21.291Z,9.88
2019-03-09T10:01:23.184Z,9.94
2019-03-09T10:02:21.758Z,10.00
2019-03-09T10:03:20.998Z,10.00
2019-03-09T10:04:21.350Z,10.12
2019-03-09T10:05:21.676Z,10.22
2019-03-09T10:06:21.597Z,10.26
2019-03-09T10:07:21.262Z,10.25
2019-03-09T10:08:21.062Z,10.21
2019-03-09T10:09:21.019Z,10.28
2019-03-09T10:10:20.934Z,10.33
2019-03-09T10:11:21.718Z,10.24
2019-03-09T10:12:20.810Z,10.33
2019-03-09T10:13:20.971Z,10.34
2019-03-09T10:14:20.834Z,10.46
2019-03-09T10:15:20.817Z,10.53
2019-03-09T10:16:20.837Z,10.58
2019-03-09T10:17:21.217Z,10.65
2019-03-09T10:18:20.822Z,10.63
2019-03-09T10:19:20.793Z,10.60
2019-03-09T10:20:21.405Z,10.56
2019-03-09T10:21:21.217Z,10.65
2019-03-09T10:22:20.794Z,10.65
2019-03-09T10:23:21.492Z,10.68
2019-03-09T10:24:20.845Z,10.68
2019-03-09T10:25:21.598Z,10.70
2019-03-09T10:26:23.990Z,10.77
2019-03-09T10:27:21.688Z,10.84
2019-03-09T10:28:20.729Z,10.80
2019-03-09T10:29:21.282Z,10.98
2019-03-09T10:30:20.889Z,10.92
2019-03-09T10:31:21.543Z,10.92
2019-03-09T10:32:21.183Z,10.78
2019-03-09T10:33:24.087Z,10.81
2019-03-09T10:34:21.877Z,10.78
2019-03-09T10:35:22.800Z,10.88
2019-03-09T10:36:22.720Z,10.83
2019-03-09T10:37:24.731Z,10.81
2019-03-09T10:38:20.972Z,10.81
2019-03-09T10:39:20.535Z,10.78
2019-03-09T10:40:20.541Z,10.83
2019-03-09T10:41:20.527Z,10.94
2019-03-09T10:42:20.913Z,11.06
2019-03-09T10:43:20.819Z,11.10
2019-03-09T10:44:20.640Z,11.17
2019-03-09T10:45:20.886Z,11.20
2019-03-09T10:46:20.659Z,11.25
2019-03-09T10:47:20.851Z,11.27
2019-03-09T10:48:20.702Z,11.19
2019-03-09T10:49:20.790Z,11.21
2019-03-09T10:50:20.407Z,11.36
2019-03-09T10:51:20.451Z,11.29
2019-03-09T10:52:21.081Z,11.21
2019-03-09T10:53:21.398Z,11.21
2019-03-09T10:54:20.486Z,11.19
2019-03-09T10:55:20.570Z,11.27
2019-03-09T10:56:20.413Z,11.29
2019-03-09T10:57:20.419Z,11.43
2019-03-09T10:58:21.575Z,11.36
2019-03-09T10:59:21.150Z,11.38
2019-03-09T11:00:20.789Z,11.41
2019-03-09T11:01:20.384Z,11.35
2019-03-09T11:02:21.361Z,11.34
2019-03-09T11:03:20.524Z,11.27
2019-03-09T11:04:27.603Z,11.25
2019-03-09T11:05:21.299Z,11.24
2019-03-09T11:06:20.286Z,11.34
2019-03-09T11:07:21.560Z,11.24
2019-03-09T11:08:20.443Z,11.32
2019-03-09T11:09:20.408Z,11.38
2019-03-09T11:10:20.570Z,11.46
2019-03-09T11:11:20.188Z,11.52
2019-03-09T11:12:20.184Z,11.54
2019-03-09T11:13:20.226Z,11.49
2019-03-09T11:14:20.426Z,11.59
2019-03-09T11:15:20.219Z,11.65
2019-03-09T11:16:20.179Z,11.64
2019-03-09T11:17:20.237Z,11.67
2019-03-09T11:18:21.542Z,11.65
2019-03-09T11:19:20.666Z,11.61
2019-03-09T11:20:20.207Z,11.62
2019-03-09T11:21:20.760Z,11.65
2019-03-09T11:22:20.312Z,11.83
2019-03-09T11:23:20.680Z,11.93
2019-03-09T11:24:20.058Z,11.96
2019-03-09T11:25:20.838Z,11.97
2019-03-09T11:26:20.179Z,11.89
2019-03-09T11:27:20.101Z,11.94
2019-03-09T11:28:20.059Z,12.33
2019-03-09T11:29:20.094Z,12.60
2019-03-09T11:30:21.036Z,12.59
2019-03-09T11:31:20.083Z,12.51
2019-03-09T11:32:21.984Z,12.63
2019-03-09T11:33:20.254Z,12.93
2019-03-09T11:34:20.877Z,14.20
2019-03-09T11:35:19.940Z,14.42
2019-03-09T11:36:19.954Z,13.20
2019-03-09T11:37:21.953Z,12.93
2019-03-09T11:38:19.892Z,12.92
2019-03-09T11:39:19.927Z,12.49
2019-03-09T11:40:19.882Z,12.89
2019-03-09T11:41:19.902Z,14.28
2019-03-09T11:42:19.843Z,14.38
2019-03-09T11:43:19.884Z,14.34
2019-03-09T11:44:20.261Z,14.52
2019-03-09T11:45:20.904Z,15.59
2019-03-09T11:46:19.802Z,15.92
2019-03-09T11:47:20.538Z,15.68
2019-03-09T11:48:19.852Z,15.19
2019-03-09T11:49:19.804Z,15.43
2019-03-09T11:50:19.828Z,15.81
2019-03-09T11:51:20.212Z,15.43
2019-03-09T11:52:20.668Z,14.62
2019-03-09T11:53:19.814Z,14.19
2019-03-09T11:54:20.565Z,14.12
2019-03-09T11:55:20.448Z,14.88
2019-03-09T11:56:19.695Z,15.45
2019-03-09T11:57:19.686Z,15.86
2019-03-09T11:58:19.785Z,16.22
2019-03-09T11:59:19.818Z,15.60
2019-03-09T12:00:19.755Z,16.01
2019-03-09T12:01:19.771Z,15.76
2019-03-09T12:02:19.657Z,14.62
2019-03-09T12:03:19.636Z,14.56
2019-03-09T12:04:20.994Z,13.77
2019-03-09T12:05:19.882Z,13.27
2019-03-09T12:06:19.667Z,13.29
2019-03-09T12:07:19.740Z,13.56
2019-03-09T12:08:19.569Z,14.87
2019-03-09T12:09:19.563Z,15.21
2019-03-09T12:10:20.661Z,15.64
2019-03-09T12:11:20.046Z,16.71
2019-03-09T12:12:19.676Z,16.27
2019-03-09T12:13:19.920Z,15.60
2019-03-09T12:14:19.716Z,16.33
2019-03-09T12:15:19.631Z,16.65
2019-03-09T12:16:19.694Z,17.36
2019-03-09T12:17:19.592Z,17.15
2019-03-09T12:18:20.087Z,16.86
2019-03-09T12:19:21.032Z,15.99
2019-03-09T12:20:19.446Z,14.90
2019-03-09T12:21:19.427Z,14.35
2019-03-09T12:22:19.412Z,13.94
2019-03-09T12:23:19.550Z,13.88
2019-03-09T12:24:20.055Z,13.74
2019-03-09T12:25:20.116Z,13.46
2019-03-09T12:26:19.487Z,13.47
2019-03-09T12:27:19.462Z,13.40
2019-03-09T12:28:19.387Z,13.25
2019-03-09T12:29:19.534Z,13.11
2019-03-09T12:30:19.440Z,13.17
2019-03-09T12:31:19.398Z,14.32
2019-03-09T12:32:19.339Z,15.46
2019-03-09T12:33:19.403Z,15.49
2019-03-09T12:34:19.354Z,16.34
2019-03-09T12:35:19.397Z,15.61
2019-03-09T12:36:19.303Z,17.06
2019-03-09T12:37:19.890Z,16.34
2019-03-09T12:38:19.312Z,15.35
2019-03-09T12:39:19.338Z,16.38
2019-03-09T12:40:19.590Z,16.73
2019-03-09T12:41:19.443Z,18.33
2019-03-09T12:42:19.407Z,18.27
2019-03-09T12:43:19.333Z,17.92
2019-03-09T12:44:19.689Z,17.18
2019-03-09T12:45:19.250Z,15.60
2019-03-09T12:46:19.193Z,14.78
2019-03-09T12:47:19.197Z,16.33
2019-03-09T12:48:19.205Z,17.26
2019-03-09T12:49:20.898Z,16.15
2019-03-09T12:50:19.162Z,14.93
2019-03-09T12:51:19.188Z,14.38
2019-03-09T12:52:19.142Z,13.94
2019-03-09T12:53:20.320Z,14.07
2019-03-09T12:54:19.772Z,13.96
2019-03-09T12:55:19.276Z,13.61
2019-03-09T12:56:19.047Z,13.29
2019-03-09T12:57:19.423Z,13.22
2019-03-09T12:58:19.026Z,12.97
2019-03-09T12:59:19.584Z,12.88
2019-03-09T13:00:19.195Z,12.81
2019-03-09T13:01:21.939Z,12.74
2019-03-09T13:02:19.449Z,12.59
2019-03-09T13:03:19.046Z,12.54
2019-03-09T13:04:19.595Z,12.57
2019-03-09T13:05:18.970Z,12.48
2019-03-09T13:06:18.988Z,12.42
2019-03-09T13:07:19.147Z,12.37
2019-03-09T13:08:19.319Z,12.37
2019-03-09T13:09:19.344Z,12.37
2019-03-09T13:10:18.972Z,12.37
2019-03-09T13:11:18.902Z,12.33
2019-03-09T13:12:19.561Z,12.37
2019-03-09T13:13:19.079Z,12.44